Time;durP1;ratioP1;P1;durP2;ratioP2;P2;SDS_P1;SDS_P2;PMS_P1;PMS_P2;Temp;Humidity;BMP_temperature;BMP_pressure;BME280_temperature;BME280_humidity;BME280_pressure;Samples;Min_cycle;Max_cycle;Signal;HPM_P1;HPM_P2
2021/11/29 00:00:13;;;;;;;9.90;5.18;;;;;;;;;;5038320;28;20036;-80
2021/11/29 00:02:40;;;;;;;6.53;4.32;;;;;;;;;;5057778;28;20032;-80
2021/11/29 00:05:06;;;;;;;11.02;4.82;;;;;;;;;;5042236;28;20419;-80
2021/11/29 00:07:32;;;;;;;9.00;4.70;;;;;;;;;;5060693;28;20025;-82
2021/11/29 00:09:58;;;;;;;8.57;4.93;;;;;;;;;;5060481;28;20028;-81
2021/11/29 00:12:24;;;;;;;7.82;4.40;;;;;;;;;;5061046;28;20048;-81
2021/11/29 00:14:50;;;;;;;5.13;3.60;;;;;;;;;;5061153;28;20033;-81
2021/11/29 00:20:20;;;;;;;5.72;4.15;;;;;;;;;;5040875;28;20037;-80
2021/11/29 00:22:46;;;;;;;7.47;4.18;;;;;;;;;;5055717;28;20284;-80
2021/11/29 00:25:13;;;;;;;6.57;4.20;;;;;;;;;;5060380;28;20029;-79
2021/11/29 00:27:39;;;;;;;6.80;4.28;;;;;;;;;;5042618;28;20049;-80
2021/11/29 00:30:06;;;;;;;6.93;3.90;;;;;;;;;;5060469;28;20045;-80
2021/11/29 00:32:32;;;;;;;4.80;3.22;;;;;;;;;;5059952;28;20330;-80
2021/11/29 00:34:58;;;;;;;6.00;3.75;;;;;;;;;;5060542;28;20071;-81
2021/11/29 00:37:24;;;;;;;4.65;3.30;;;;;;;;;;5060674;28;20116;-82
2021/11/29 00:39:51;;;;;;;4.78;3.60;;;;;;;;;;5060465;28;20056;-81
2021/11/29 00:42:17;;;;;;;4.35;3.10;;;;;;;;;;5060521;28;20079;-81
2021/11/29 00:44:43;;;;;;;4.65;3.75;;;;;;;;;;5059998;28;20035;-82
2021/11/29 00:47:25;;;;;;;4.80;3.67;;;;;;;;;;5060173;28;20477;-81
2021/11/29 00:49:51;;;;;;;7.53;5.17;;;;;;;;;;5060412;28;20032;-81
2021/11/29 00:52:17;;;;;;;8.45;5.13;;;;;;;;;;5060253;28;20583;-82
2021/11/29 00:54:43;;;;;;;6.43;4.97;;;;;;;;;;5042120;28;20037;-80
2021/11/29 00:57:09;;;;;;;6.00;4.70;;;;;;;;;;5060292;28;20033;-80
2021/11/29 00:59:35;;;;;;;7.13;4.90;;;;;;;;;;5060206;28;20100;-80
2021/11/29 01:02:35;;;;;;;8.68;5.15;;;;;;;;;;5041150;28;20120;-80
2021/11/29 01:05:02;;;;;;;7.30;4.47;;;;;;;;;;5059677;28;20032;-80
2021/11/29 01:07:28;;;;;;;5.57;4.75;;;;;;;;;;5041552;28;20112;-80
2021/11/29 01:09:54;;;;;;;7.70;4.35;;;;;;;;;;5059081;28;20409;-80
2021/11/29 01:12:20;;;;;;;5.43;3.85;;;;;;;;;;5042228;28;20029;-81
2021/11/29 01:14:46;;;;;;;6.03;3.55;;;;;;;;;;5059226;28;20025;-81
2021/11/29 01:17:21;;;;;;;3.60;3.13;;;;;;;;;;5059255;28;20119;-81
2021/11/29 01:19:47;;;;;;;3.25;2.95;;;;;;;;;;5059889;28;20105;-81
2021/11/29 01:22:14;;;;;;;5.28;3.80;;;;;;;;;;5040791;28;20125;-82
2021/11/29 01:24:40;;;;;;;4.85;3.20;;;;;;;;;;5059270;28;20025;-81
2021/11/29 01:27:06;;;;;;;4.40;3.40;;;;;;;;;;5041770;28;20041;-80
2021/11/29 01:29:32;;;;;;;5.70;3.67;;;;;;;;;;5059466;28;20107;-82
2021/11/29 01:31:58;;;;;;;7.50;3.78;;;;;;;;;;5059560;28;20450;-82
2021/11/29 01:34:24;;;;;;;4.63;3.35;;;;;;;;;;5059583;28;20322;-82
2021/11/29 01:36:51;;;;;;;5.30;3.92;;;;;;;;;;5059311;28;20415;-82
2021/11/29 01:39:17;;;;;;;5.80;3.88;;;;;;;;;;5041715;28;20032;-81
2021/11/29 01:41:44;;;;;;;5.93;3.88;;;;;;;;;;5041318;28;20048;-82
2021/11/29 01:44:10;;;;;;;5.70;4.40;;;;;;;;;;5058890;28;20029;-82
2021/11/29 01:46:36;;;;;;;6.47;4.82;;;;;;;;;;5040812;28;20331;-82
2021/11/29 01:49:03;;;;;;;5.07;4.30;;;;;;;;;;5058804;28;20116;-81
2021/11/29 01:51:29;;;;;;;6.03;4.40;;;;;;;;;;5041487;28;20097;-81
2021/11/29 01:53:55;;;;;;;6.90;4.50;;;;;;;;;;5058679;28;20028;-81
2021/11/29 01:56:21;;;;;;;4.47;4.00;;;;;;;;;;5041120;28;20029;-81
2021/11/29 01:58:48;;;;;;;5.50;3.92;;;;;;;;;;5058842;28;20017;-81
2021/11/29 02:01:24;;;;;;;4.38;3.75;;;;;;;;;;5059024;28;20071;-81
2021/11/29 02:06:53;;;;;;;5.35;4.25;;;;;;;;;;5059033;28;20363;-81
2021/11/29 02:09:19;;;;;;;4.38;3.30;;;;;;;;;;5058333;28;20048;-81
2021/11/29 02:11:45;;;;;;;5.32;3.38;;;;;;;;;;5058688;28;20033;-81
2021/11/29 02:14:12;;;;;;;4.18;3.40;;;;;;;;;;5058605;28;20025;-81
2021/11/29 02:16:38;;;;;;;4.15;3.38;;;;;;;;;;5058211;28;20108;-81
2021/11/29 02:19:05;;;;;;;4.82;3.63;;;;;;;;;;5057957;28;20029;-81
2021/11/29 02:21:31;;;;;;;3.75;3.15;;;;;;;;;;5040529;28;20033;-82
2021/11/29 02:23:59;;;;;;;4.40;3.45;;;;;;;;;;5057808;28;20108;-80
2021/11/29 02:26:27;;;;;;;5.03;3.80;;;;;;;;;;5039707;28;20159;-80
2021/11/29 02:28:55;;;;;;;3.92;2.90;;;;;;;;;;5040454;28;20036;-80
2021/11/29 02:31:24;;;;;;;5.10;3.33;;;;;;;;;;5039665;28;20108;-81
2021/11/29 02:36:55;;;;;;;3.60;2.50;;;;;;;;;;5057816;28;20040;-81
2021/11/29 02:39:21;;;;;;;3.75;3.00;;;;;;;;;;5058387;28;20021;-81
2021/11/29 02:41:49;;;;;;;9.73;3.22;;;;;;;;;;5040028;28;20037;-84
2021/11/29 02:44:15;;;;;;;3.60;2.78;;;;;;;;;;5040578;28;20104;-82
2021/11/29 02:46:42;;;;;;;5.05;2.58;;;;;;;;;;5057815;28;20029;-82
2021/11/29 02:49:45;;;;;;;2.65;2.45;;;;;;;;;;5058407;28;20357;-82
2021/11/29 02:52:13;;;;;;;3.72;2.50;;;;;;;;;;5040176;28;20025;-82
2021/11/29 02:54:40;;;;;;;2.78;2.30;;;;;;;;;;5057750;28;20061;-82
2021/11/29 02:57:08;;;;;;;3.83;2.58;;;;;;;;;;5057850;28;20041;-82
2021/11/29 02:59:35;;;;;;;3.13;2.20;;;;;;;;;;5058117;28;20326;-82
2021/11/29 03:02:03;;;;;;;2.78;2.28;;;;;;;;;;5057613;28;20033;-80
2021/11/29 03:04:30;;;;;;;5.28;2.42;;;;;;;;;;5056879;28;20410;-80
2021/11/29 03:06:56;;;;;;;3.70;2.88;;;;;;;;;;5039975;28;20025;-81
2021/11/29 03:09:23;;;;;;;3.08;2.47;;;;;;;;;;5057108;28;20107;-80
2021/11/29 03:11:49;;;;;;;2.55;2.22;;;;;;;;;;5057640;28;20433;-81
2021/11/29 03:14:16;;;;;;;3.53;2.40;;;;;;;;;;5039451;28;20403;-81
2021/11/29 03:16:43;;;;;;;3.40;2.67;;;;;;;;;;5057600;28;20060;-81
2021/11/29 03:22:13;;;;;;;2.45;2.20;;;;;;;;;;5057312;28;20068;-80
2021/11/29 03:24:46;;;;;;;2.92;2.58;;;;;;;;;;5057081;28;20107;-81
2021/11/29 03:27:14;;;;;;;3.35;2.58;;;;;;;;;;5038946;28;20461;-81
2021/11/29 03:29:40;;;;;;;4.53;2.47;;;;;;;;;;5046824;28;20036;-80
2021/11/29 03:32:08;;;;;;;7.65;3.42;;;;;;;;;;5037214;28;20473;-81
2021/11/29 03:34:54;;;;;;;4.13;3.03;;;;;;;;;;5037266;28;20044;-81
2021/11/29 03:37:22;;;;;;;3.08;2.72;;;;;;;;;;5036991;28;20032;-81
2021/11/29 03:39:49;;;;;;;4.18;3.25;;;;;;;;;;5037380;28;20025;-79
2021/11/29 03:42:15;;;;;;;10.20;3.40;;;;;;;;;;5030088;28;20056;-80
2021/11/29 03:44:41;;;;;;;3.38;2.70;;;;;;;;;;5039425;28;20035;-80
2021/11/29 03:47:07;;;;;;;3.08;2.45;;;;;;;;;;5046691;28;20053;-81
2021/11/29 03:49:34;;;;;;;3.00;2.65;;;;;;;;;;5019785;28;20028;-84
2021/11/29 03:52:00;;;;;;;4.13;2.97;;;;;;;;;;5037165;28;20040;-81
2021/11/29 03:54:27;;;;;;;3.67;2.67;;;;;;;;;;5019269;28;20041;-81
2021/11/29 03:56:53;;;;;;;2.95;2.50;;;;;;;;;;5037508;28;20025;-81
2021/11/29 03:59:19;;;;;;;3.25;2.78;;;;;;;;;;5028415;28;20029;-81
2021/11/29 04:01:47;;;;;;;3.97;2.80;;;;;;;;;;5019645;28;20477;-81
2021/11/29 04:04:31;;;;;;;4.45;2.78;;;;;;;;;;5047263;28;20081;-81
2021/11/29 04:06:57;;;;;;;4.22;3.65;;;;;;;;;;5056118;28;20021;-81
2021/11/29 04:09:23;;;;;;;5.53;4.30;;;;;;;;;;5057201;28;20017;-81
2021/11/29 04:11:49;;;;;;;7.82;5.50;;;;;;;;;;5052820;28;20057;-81
2021/11/29 04:14:15;;;;;;;4.50;4.10;;;;;;;;;;5036929;28;20450;-81
2021/11/29 04:16:41;;;;;;;5.15;4.22;;;;;;;;;;5036785;28;20037;-81
2021/11/29 04:19:08;;;;;;;5.68;5.10;;;;;;;;;;5037122;28;20297;-81
2021/11/29 04:21:34;;;;;;;12.98;7.65;;;;;;;;;;5037605;28;20033;-81
2021/11/29 04:24:00;;;;;;;8.27;5.90;;;;;;;;;;5036960;28;20360;-81
2021/11/29 04:26:28;;;;;;;11.88;7.05;;;;;;;;;;5031088;28;20037;-81
2021/11/29 04:28:55;;;;;;;25.45;11.93;;;;;;;;;;5056394;28;20056;-82
2021/11/29 04:31:21;;;;;;;26.85;10.32;;;;;;;;;;5056293;28;20100;-80
2021/11/29 04:34:24;;;;;;;10.40;5.85;;;;;;;;;;5056244;28;20040;-82
2021/11/29 04:36:50;;;;;;;4.90;3.60;;;;;;;;;;5056220;28;20052;-81
2021/11/29 04:39:17;;;;;;;5.80;4.30;;;;;;;;;;5056411;28;20028;-82
2021/11/29 04:41:44;;;;;;;4.57;3.80;;;;;;;;;;5056032;28;20037;-80
2021/11/29 04:44:10;;;;;;;5.82;3.40;;;;;;;;;;5056554;28;20314;-81
2021/11/29 04:46:37;;;;;;;4.40;3.75;;;;;;;;;;5036711;28;20040;-81
2021/11/29 04:49:40;;;;;;;3.50;3.20;;;;;;;;;;5037336;28;20033;-82
2021/11/29 04:52:07;;;;;;;3.90;2.95;;;;;;;;;;5054746;28;20039;-81
2021/11/29 04:54:33;;;;;;;7.60;4.10;;;;;;;;;;5059974;28;20029;-81
2021/11/29 04:56:59;;;;;;;9.38;5.15;;;;;;;;;;5060105;28;20087;-81
2021/11/29 04:59:25;;;;;;;20.00;8.10;;;;;;;;;;5059899;28;20056;-81
2021/11/29 05:01:51;;;;;;;46.72;16.75;;;;;;;;;;5060062;28;20029;-81
2021/11/29 05:04:17;;;;;;;74.03;24.02;;;;;;;;;;5059698;28;20053;-81
2021/11/29 05:06:43;;;;;;;36.58;14.77;;;;;;;;;;5041737;28;20112;-81
2021/11/29 05:09:11;;;;;;;22.23;10.20;;;;;;;;;;5060107;28;20029;-81
2021/11/29 05:11:37;;;;;;;7.63;5.03;;;;;;;;;;5059881;28;20033;-81
2021/11/29 05:14:03;;;;;;;5.72;4.07;;;;;;;;;;5041313;28;20037;-81
2021/11/29 05:16:30;;;;;;;6.97;4.60;;;;;;;;;;5041817;28;20025;-80
2021/11/29 05:21:59;;;;;;;6.35;4.50;;;;;;;;;;5059726;28;20106;-80
2021/11/29 05:24:25;;;;;;;4.80;4.30;;;;;;;;;;5059597;28;20021;-81
2021/11/29 05:26:52;;;;;;;5.00;4.50;;;;;;;;;;5059249;28;20151;-81
2021/11/29 05:29:19;;;;;;;4.40;3.92;;;;;;;;;;5059474;28;20049;-81
2021/11/29 05:31:45;;;;;;;5.07;4.28;;;;;;;;;;5059053;28;20020;-80
2021/11/29 05:34:13;;;;;;;4.85;3.58;;;;;;;;;;5041455;28;20056;-81
2021/11/29 05:36:39;;;;;;;4.47;4.07;;;;;;;;;;5041471;28;20040;-82
2021/11/29 05:39:05;;;;;;;8.13;4.47;;;;;;;;;;5059446;28;20026;-82
2021/11/29 05:41:31;;;;;;;7.75;5.15;;;;;;;;;;5059253;28;20399;-81
2021/11/29 05:43:58;;;;;;;28.40;12.57;;;;;;;;;;5059245;28;20035;-82
2021/11/29 05:46:24;;;;;;;33.72;15.52;;;;;;;;;;5059176;28;20107;-81
2021/11/29 05:48:50;;;;;;;69.97;20.25;;;;;;;;;;5058999;28;20071;-81
2021/11/29 05:51:17;;;;;;;49.90;15.35;;;;;;;;;;5059362;28;20296;-80
2021/11/29 05:53:43;;;;;;;21.30;7.93;;;;;;;;;;5058501;28;20032;-80
2021/11/29 05:56:09;;;;;;;36.60;10.20;;;;;;;;;;5058585;28;20462;-80
2021/11/29 05:58:36;;;;;;;24.38;7.57;;;;;;;;;;5058191;28;20028;-80
2021/11/29 06:01:03;;;;;;;47.25;13.02;;;;;;;;;;5056731;28;20418;-80
2021/11/29 06:03:29;;;;;;;31.98;11.32;;;;;;;;;;5047377;28;20030;-82
2021/11/29 06:05:55;;;;;;;32.40;11.07;;;;;;;;;;5038813;28;20063;-80
2021/11/29 06:08:21;;;;;;;41.40;14.15;;;;;;;;;;5055107;28;20406;-81
2021/11/29 06:10:47;;;;;;;26.88;11.80;;;;;;;;;;5040548;28;20036;-81
2021/11/29 06:13:15;;;;;;;37.33;16.23;;;;;;;;;;5057988;28;20419;-81
2021/11/29 06:15:41;;;;;;;17.73;9.93;;;;;;;;;;5041138;28;20075;-81
2021/11/29 06:18:07;;;;;;;11.40;7.35;;;;;;;;;;5058209;28;20040;-81
2021/11/29 06:20:33;;;;;;;13.98;9.88;;;;;;;;;;5058535;28;20052;-80
2021/11/29 06:23:00;;;;;;;11.80;10.00;;;;;;;;;;5040113;28;20417;-81
2021/11/29 06:25:27;;;;;;;8.15;6.60;;;;;;;;;;5040862;28;20029;-81
2021/11/29 06:27:54;;;;;;;7.93;7.03;;;;;;;;;;5057604;28;20044;-80
2021/11/29 06:30:21;;;;;;;11.93;8.68;;;;;;;;;;5038972;28;20024;-81
2021/11/29 06:32:47;;;;;;;20.35;13.27;;;;;;;;;;5040557;28;20013;-81
2021/11/29 06:35:32;;;;;;;16.55;12.13;;;;;;;;;;5058698;28;20112;-81
2021/11/29 06:38:00;;;;;;;17.90;12.82;;;;;;;;;;5057938;28;20108;-80
2021/11/29 06:40:26;;;;;;;17.42;12.73;;;;;;;;;;5037876;28;20044;-82
2021/11/29 06:42:53;;;;;;;13.23;11.20;;;;;;;;;;5040482;28;20476;-78
2021/11/29 06:45:20;;;;;;;14.38;9.95;;;;;;;;;;5040443;28;20142;-78
2021/11/29 06:47:46;;;;;;;14.65;11.25;;;;;;;;;;5057337;28;20028;-78
2021/11/29 06:50:49;;;;;;;19.20;12.35;;;;;;;;;;5058122;28;20044;-83
2021/11/29 06:53:15;;;;;;;21.63;13.13;;;;;;;;;;5038234;28;20025;-84
2021/11/29 06:55:44;;;;;;;27.83;17.50;;;;;;;;;;5038076;28;20026;-84
2021/11/29 06:58:10;;;;;;;30.42;19.77;;;;;;;;;;5020702;28;20078;-83
2021/11/29 07:00:36;;;;;;;41.58;27.38;;;;;;;;;;5020650;28;20026;-84
2021/11/29 07:03:02;;;;;;;36.58;23.13;;;;;;;;;;5038083;28;20025;-83
2021/11/29 07:05:29;;;;;;;31.58;23.75;;;;;;;;;;5038393;28;20029;-83
2021/11/29 07:07:55;;;;;;;26.95;19.90;;;;;;;;;;5038081;28;20024;-83
2021/11/29 07:10:28;;;;;;;24.88;17.42;;;;;;;;;;5020637;28;20024;-83
2021/11/29 07:12:55;;;;;;;26.23;18.10;;;;;;;;;;5037603;28;20025;-84
2021/11/29 07:15:22;;;;;;;27.63;18.95;;;;;;;;;;5020351;28;20109;-83
2021/11/29 07:17:48;;;;;;;26.17;18.52;;;;;;;;;;5037709;28;20034;-82
2021/11/29 07:20:14;;;;;;;22.92;15.52;;;;;;;;;;5037849;28;20052;-83
2021/11/29 07:22:40;;;;;;;22.88;16.88;;;;;;;;;;5037618;28;20403;-83
2021/11/29 07:25:07;;;;;;;23.70;16.17;;;;;;;;;;5020144;28;20045;-84
2021/11/29 07:27:33;;;;;;;23.85;17.15;;;;;;;;;;5037539;28;20077;-83
2021/11/29 07:30:01;;;;;;;20.58;14.30;;;;;;;;;;5036601;28;20067;-93
2021/11/29 07:32:29;;;;;;;21.98;15.65;;;;;;;;;;5040943;28;20033;-89
2021/11/29 07:37:59;;;;;;;28.55;17.65;;;;;;;;;;5057979;28;20031;-93
2021/11/29 07:40:29;;;;;;;27.23;16.27;;;;;;;;;;5057882;28;20024;-92
2021/11/29 07:42:56;;;;;;;21.50;15.45;;;;;;;;;;5039841;28;20037;-92
2021/11/29 07:45:22;;;;;;;30.25;17.75;;;;;;;;;;5058091;28;20021;-94
2021/11/29 07:47:48;;;;;;;76.80;33.53;;;;;;;;;;5057877;28;20075;-93
2021/11/29 07:53:18;;;;;;;30.98;18.38;;;;;;;;;;5057942;28;20366;-92
2021/11/29 07:55:44;;;;;;;30.02;20.02;;;;;;;;;;5057933;28;20036;-92
2021/11/29 07:58:10;;;;;;;69.78;33.28;;;;;;;;;;5057882;28;20021;-93
2021/11/29 08:00:37;;;;;;;38.60;21.70;;;;;;;;;;5040116;28;20108;-92
2021/11/29 08:03:04;;;;;;;22.45;16.02;;;;;;;;;;5057421;28;20021;-94
2021/11/29 08:08:33;;;;;;;31.10;19.65;;;;;;;;;;5057860;28;20067;-93
2021/11/29 08:10:59;;;;;;;26.40;17.23;;;;;;;;;;5057807;28;20025;-92
2021/11/29 08:13:25;;;;;;;21.42;16.00;;;;;;;;;;5057858;28;20041;-92
2021/11/29 08:15:52;;;;;;;33.10;19.55;;;;;;;;;;5057616;28;20033;-91
2021/11/29 08:18:18;;;;;;;26.75;17.98;;;;;;;;;;5057537;28;20139;-93
2021/11/29 08:23:47;;;;;;;28.13;17.17;;;;;;;;;;5059036;28;20090;-93
2021/11/29 08:26:13;;;;;;;32.42;20.63;;;;;;;;;;5043150;28;20033;-92
2021/11/29 08:28:39;;;;;;;34.15;21.08;;;;;;;;;;5043711;28;20438;-92
2021/11/29 08:31:06;;;;;;;30.05;19.77;;;;;;;;;;5061817;28;20021;-93
2021/11/29 08:33:32;;;;;;;23.77;16.17;;;;;;;;;;5061316;28;20407;-93
2021/11/29 08:39:03;;;;;;;19.25;13.30;;;;;;;;;;5061730;28;20032;-91
2021/11/29 08:41:30;;;;;;;19.55;13.52;;;;;;;;;;5061460;28;20033;-93
2021/11/29 08:43:56;;;;;;;24.05;16.98;;;;;;;;;;5043168;28;20033;-92
2021/11/29 08:46:23;;;;;;;24.13;15.25;;;;;;;;;;5060774;28;20032;-92
2021/11/29 08:48:49;;;;;;;20.35;14.75;;;;;;;;;;5061145;28;20441;-91
2021/11/29 08:51:35;;;;;;;20.83;14.00;;;;;;;;;;5061384;28;20086;-91
2021/11/29 08:54:01;;;;;;;20.38;14.75;;;;;;;;;;5060935;28;20029;-92
2021/11/29 08:56:28;;;;;;;20.77;13.82;;;;;;;;;;5043562;28;20048;-92
2021/11/29 08:58:54;;;;;;;21.73;14.82;;;;;;;;;;5043360;28;20032;-93
2021/11/29 09:01:20;;;;;;;23.75;15.60;;;;;;;;;;5061187;28;20035;-88
2021/11/29 09:03:46;;;;;;;21.45;15.57;;;;;;;;;;5042588;28;20033;-93
2021/11/29 09:06:13;;;;;;;20.50;15.10;;;;;;;;;;5061403;28;20047;-92
2021/11/29 09:08:39;;;;;;;21.85;15.68;;;;;;;;;;5043377;28;20060;-94
2021/11/29 09:11:06;;;;;;;23.50;16.50;;;;;;;;;;5042738;28;20030;-93
2021/11/29 09:13:32;;;;;;;22.52;15.50;;;;;;;;;;5060812;28;20028;-93
2021/11/29 09:16:02;;;;;;;20.05;15.52;;;;;;;;;;5060711;28;20025;-93
2021/11/29 09:18:28;;;;;;;23.98;17.10;;;;;;;;;;5060436;28;20071;-93
2021/11/29 09:20:55;;;;;;;24.83;16.30;;;;;;;;;;5042977;28;20107;-93
2021/11/29 09:23:21;;;;;;;27.25;17.52;;;;;;;;;;5060239;28;20045;-93
2021/11/29 09:25:48;;;;;;;23.50;16.27;;;;;;;;;;5042758;28;20119;-93
2021/11/29 09:28:14;;;;;;;20.90;15.65;;;;;;;;;;5059985;28;20056;-92
2021/11/29 09:30:45;;;;;;;21.88;15.00;;;;;;;;;;5060439;28;20352;-93
2021/11/29 09:33:11;;;;;;;24.50;16.33;;;;;;;;;;5042583;28;20048;-93
2021/11/29 09:38:41;;;;;;;21.02;15.77;;;;;;;;;;5060344;28;20425;-93
2021/11/29 09:41:07;;;;;;;22.90;15.73;;;;;;;;;;5060321;28;20156;-94
2021/11/29 09:43:34;;;;;;;24.88;16.70;;;;;;;;;;5042312;28;20029;-94
2021/11/29 09:46:01;;;;;;;22.52;15.93;;;;;;;;;;5042562;28;20029;-95
2021/11/29 09:48:27;;;;;;;23.70;16.85;;;;;;;;;;5041947;28;20075;-93
2021/11/29 09:53:57;;;;;;;22.83;13.85;;;;;;;;;;5060022;28;20047;-94
2021/11/29 09:56:23;;;;;;;25.73;15.20;;;;;;;;;;5041328;28;20114;-92
2021/11/29 09:58:49;;;;;;;20.75;14.55;;;;;;;;;;5042142;28;20048;-95
2021/11/29 10:01:16;;;;;;;24.35;16.00;;;;;;;;;;5059812;28;20025;-93
2021/11/29 10:03:42;;;;;;;16.92;12.95;;;;;;;;;;5041985;28;20028;-94
2021/11/29 10:09:34;;;;;;;18.50;13.90;;;;;;;;;;5059717;28;20083;-94
2021/11/29 10:12:20;;;;;;;20.08;14.63;;;;;;;;;;5059684;28;20358;-93
2021/11/29 10:15:06;;;;;;;26.10;16.75;;;;;;;;;;5041476;28;20028;-93
2021/11/29 10:17:32;;;;;;;27.42;17.83;;;;;;;;;;5059220;28;20083;-94
2021/11/29 10:19:59;;;;;;;28.67;17.77;;;;;;;;;;5041780;28;20071;-93
2021/11/29 10:25:28;;;;;;;22.60;16.15;;;;;;;;;;5059464;28;20059;-93
2021/11/29 10:27:54;;;;;;;24.02;15.57;;;;;;;;;;5059252;28;20327;-94
2021/11/29 10:30:24;;;;;;;20.33;14.38;;;;;;;;;;5059294;28;20033;-94
2021/11/29 10:32:50;;;;;;;21.17;15.35;;;;;;;;;;5060187;28;20040;-92
2021/11/29 10:35:33;;;;;;;20.45;14.63;;;;;;;;;;5059680;28;20059;-91
2021/11/29 10:37:59;;;;;;;26.85;17.33;;;;;;;;;;5059202;28;20028;-93
2021/11/29 10:40:26;;;;;;;26.98;16.70;;;;;;;;;;5041326;28;20437;-92
2021/11/29 10:42:52;;;;;;;32.55;18.08;;;;;;;;;;5041251;28;20028;-91
2021/11/29 10:45:20;;;;;;;21.27;14.20;;;;;;;;;;5041332;28;20021;-92
2021/11/29 10:47:48;;;;;;;24.05;15.65;;;;;;;;;;5040695;28;20028;-91
2021/11/29 10:59:09;;;;;;;36.15;21.05;;;;;;;;;;5058883;28;20032;-91
2021/11/29 11:01:44;;;;;;;29.05;17.60;;;;;;;;;;5058886;28;20056;-92
2021/11/29 11:04:29;;;;;;;22.52;15.00;;;;;;;;;;5040494;28;20067;-93
2021/11/29 11:09:59;;;;;;;23.15;15.20;;;;;;;;;;5058746;28;20096;-90
2021/11/29 11:12:30;;;;;;;19.83;12.15;;;;;;;;;;5040853;28;20052;-91
2021/11/29 11:15:03;;;;;;;28.95;15.45;;;;;;;;;;5058215;28;20100;-90
2021/11/29 11:17:30;;;;;;;32.08;17.00;;;;;;;;;;5058649;28;20134;-92
2021/11/29 11:19:57;;;;;;;21.23;13.32;;;;;;;;;;5058427;28;20024;-91
2021/11/29 11:25:31;;;;;;;22.20;14.30;;;;;;;;;;5058322;28;20334;-91
2021/11/29 11:27:58;;;;;;;22.17;13.45;;;;;;;;;;5039998;28;20423;-92
2021/11/29 11:30:25;;;;;;;20.00;13.18;;;;;;;;;;5040461;28;20025;-91
2021/11/29 11:32:59;;;;;;;21.45;14.85;;;;;;;;;;5040525;28;20086;-92
2021/11/29 11:35:29;;;;;;;20.95;13.88;;;;;;;;;;5058111;28;20048;-92
2021/11/29 11:37:59;;;;;;;32.58;18.25;;;;;;;;;;5054678;28;20028;-92
2021/11/29 11:40:30;;;;;;;35.63;17.27;;;;;;;;;;5039730;28;20033;-93
2021/11/29 11:42:56;;;;;;;28.10;18.08;;;;;;;;;;5040215;28;20021;-91
2021/11/29 11:45:24;;;;;;;25.85;17.17;;;;;;;;;;5040612;28;20036;-91
2021/11/29 11:47:51;;;;;;;29.85;19.48;;;;;;;;;;5057650;28;20098;-92
2021/11/29 11:50:19;;;;;;;23.60;17.48;;;;;;;;;;5057563;28;20395;-92
2021/11/29 11:52:45;;;;;;;19.33;13.60;;;;;;;;;;5058033;28;20025;-91
2021/11/29 11:55:13;;;;;;;18.05;12.35;;;;;;;;;;5057510;28;20033;-91
2021/11/29 11:57:40;;;;;;;25.40;15.77;;;;;;;;;;5057814;28;20025;-91
2021/11/29 12:00:19;;;;;;;22.08;15.15;;;;;;;;;;5057736;28;20021;-91
2021/11/29 12:02:45;;;;;;;25.20;17.23;;;;;;;;;;5039477;28;20446;-91
2021/11/29 12:05:13;;;;;;;27.40;18.02;;;;;;;;;;5057679;28;20025;-88
2021/11/29 12:07:39;;;;;;;22.00;15.80;;;;;;;;;;5057497;28;20429;-88
2021/11/29 12:10:43;;;;;;;19.90;14.27;;;;;;;;;;5057925;28;20055;-88
2021/11/29 12:13:11;;;;;;;16.80;13.27;;;;;;;;;;4957996;29;20350;-88
2021/11/29 12:15:45;;;;;;;22.05;14.48;;;;;;;;;;4958120;29;20027;-89
2021/11/29 12:18:13;;;;;;;19.85;14.52;;;;;;;;;;4941946;29;20546;-89
2021/11/29 12:20:39;;;;;;;37.72;19.20;;;;;;;;;;4941905;29;20037;-89
2021/11/29 12:23:06;;;;;;;24.40;15.98;;;;;;;;;;4941482;29;20027;-88
2021/11/29 12:25:45;;;;;;;30.05;16.88;;;;;;;;;;4941208;29;20126;-88
2021/11/29 12:28:11;;;;;;;23.85;15.05;;;;;;;;;;4957654;29;20145;-88
2021/11/29 12:30:39;;;;;;;21.83;14.43;;;;;;;;;;4940795;29;20031;-89
2021/11/29 12:33:05;;;;;;;36.42;18.10;;;;;;;;;;4940902;29;20046;-89
2021/11/29 12:35:37;;;;;;;24.33;14.38;;;;;;;;;;4957734;29;20110;-88
2021/11/29 12:38:05;;;;;;;21.35;13.85;;;;;;;;;;4957809;29;20390;-89
2021/11/29 12:40:40;;;;;;;24.00;15.27;;;;;;;;;;4941643;29;20166;-89
2021/11/29 12:43:06;;;;;;;34.40;15.50;;;;;;;;;;4959203;28;20171;-88
2021/11/29 12:45:33;;;;;;;53.88;22.15;;;;;;;;;;5057196;28;20422;-90
2021/11/29 12:48:04;;;;;;;43.65;19.83;;;;;;;;;;5057203;28;20017;-88
2021/11/29 12:50:39;;;;;;;28.50;16.48;;;;;;;;;;5039563;28;20053;-89
2021/11/29 12:53:21;;;;;;;20.60;14.13;;;;;;;;;;5057260;28;20319;-89
2021/11/29 12:55:49;;;;;;;24.15;16.08;;;;;;;;;;5057157;28;20029;-88
2021/11/29 12:58:16;;;;;;;17.13;12.75;;;;;;;;;;5039629;28;20022;-88
2021/11/29 13:00:44;;;;;;;36.60;15.57;;;;;;;;;;5039654;28;20025;-88
2021/11/29 13:03:11;;;;;;;49.78;20.50;;;;;;;;;;5038981;28;20043;-90
2021/11/29 13:11:45;;;;;;;16.52;11.75;;;;;;;;;;5060819;28;20024;-88
2021/11/29 13:14:23;;;;;;;18.23;11.85;;;;;;;;;;5042855;28;20022;-88
2021/11/29 13:16:50;;;;;;;22.05;13.13;;;;;;;;;;5042930;28;20360;-89
2021/11/29 13:19:18;;;;;;;18.40;13.02;;;;;;;;;;5026028;28;20168;-88
2021/11/29 13:21:48;;;;;;;18.80;12.70;;;;;;;;;;5042894;28;20044;-88
2021/11/29 13:24:25;;;;;;;17.50;13.32;;;;;;;;;;5060364;28;20051;-89
2021/11/29 13:26:51;;;;;;;16.05;11.35;;;;;;;;;;5042501;28;20064;-88
2021/11/29 13:29:22;;;;;;;14.77;10.55;;;;;;;;;;5042728;28;20115;-88
2021/11/29 13:31:49;;;;;;;21.13;11.10;;;;;;;;;;5042522;28;20127;-88
2021/11/29 13:34:23;;;;;;;17.50;11.57;;;;;;;;;;5042441;28;20055;-89
2021/11/29 13:36:50;;;;;;;17.77;12.23;;;;;;;;;;5042341;28;20037;-89
2021/11/29 13:39:17;;;;;;;16.38;11.48;;;;;;;;;;5060087;28;20021;-89
2021/11/29 13:41:45;;;;;;;16.73;11.50;;;;;;;;;;5060312;28;20021;-89
2021/11/29 13:44:37;;;;;;;18.90;10.57;;;;;;;;;;5042468;28;20044;-89
2021/11/29 13:47:05;;;;;;;14.65;10.30;;;;;;;;;;5037922;28;20029;-88
2021/11/29 13:49:36;;;;;;;15.82;10.80;;;;;;;;;;5060234;28;20036;-88
2021/11/29 13:52:03;;;;;;;14.45;10.23;;;;;;;;;;5042297;28;20021;-89
2021/11/29 13:54:30;;;;;;;13.70;9.95;;;;;;;;;;5042013;28;20040;-89
2021/11/29 13:56:56;;;;;;;13.90;10.07;;;;;;;;;;5041811;28;20083;-90
2021/11/29 13:59:22;;;;;;;13.90;9.23;;;;;;;;;;5042107;28;20037;-89
2021/11/29 14:01:48;;;;;;;11.55;8.70;;;;;;;;;;5041659;28;20040;-88
2021/11/29 14:04:14;;;;;;;11.75;8.77;;;;;;;;;;5059482;28;20017;-89
2021/11/29 14:06:40;;;;;;;12.32;8.85;;;;;;;;;;5041778;28;20502;-89
2021/11/29 14:09:14;;;;;;;12.82;9.52;;;;;;;;;;5059435;28;20350;-89
2021/11/29 14:11:41;;;;;;;12.40;8.60;;;;;;;;;;5041779;28;20029;-88
2021/11/29 14:14:09;;;;;;;14.25;9.23;;;;;;;;;;5041289;28;20345;-89
2021/11/29 14:16:41;;;;;;;12.10;8.98;;;;;;;;;;5059335;28;20036;-88
2021/11/29 14:19:09;;;;;;;12.55;9.85;;;;;;;;;;5041781;28;20056;-89
2021/11/29 14:21:39;;;;;;;14.02;9.77;;;;;;;;;;5023520;28;20033;-89
2021/11/29 14:24:10;;;;;;;11.60;9.25;;;;;;;;;;5059010;28;20037;-88
2021/11/29 14:26:37;;;;;;;16.73;11.50;;;;;;;;;;5041640;28;20029;-88
2021/11/29 14:29:07;;;;;;;22.80;14.20;;;;;;;;;;5041478;28;20040;-89
2021/11/29 14:31:34;;;;;;;18.80;11.38;;;;;;;;;;5058967;28;20048;-88
2021/11/29 14:34:00;;;;;;;17.63;12.60;;;;;;;;;;5041436;28;20033;-88
2021/11/29 14:36:27;;;;;;;28.25;17.73;;;;;;;;;;5041264;28;20029;-88
2021/11/29 14:38:53;;;;;;;36.38;21.85;;;;;;;;;;5059075;28;20311;-89
2021/11/29 14:41:19;;;;;;;24.33;16.65;;;;;;;;;;5041270;28;20122;-89
2021/11/29 14:43:49;;;;;;;20.83;15.02;;;;;;;;;;5041420;28;20095;-89
2021/11/29 14:46:28;;;;;;;25.67;18.00;;;;;;;;;;5058788;28;20048;-88
2021/11/29 14:49:14;;;;;;;32.92;23.45;;;;;;;;;;5058751;28;20013;-88
2021/11/29 14:54:45;;;;;;;26.83;18.83;;;;;;;;;;5058584;28;20060;-87
2021/11/29 14:57:14;;;;;;;22.73;17.02;;;;;;;;;;5058882;28;20044;-87
2021/11/29 14:59:40;;;;;;;21.65;13.07;;;;;;;;;;5058357;28;20193;-87
2021/11/29 15:02:06;;;;;;;16.85;12.80;;;;;;;;;;5058306;28;20453;-87
2021/11/29 15:04:34;;;;;;;20.58;12.90;;;;;;;;;;5058332;28;20025;-87
2021/11/29 15:07:26;;;;;;;15.80;11.60;;;;;;;;;;5058063;28;20021;-87
2021/11/29 15:09:54;;;;;;;19.20;12.30;;;;;;;;;;5036740;28;20033;-88
2021/11/29 15:12:22;;;;;;;22.17;14.55;;;;;;;;;;5059513;28;20407;-85
2021/11/29 15:14:48;;;;;;;28.27;17.08;;;;;;;;;;5058549;28;20025;-87
2021/11/29 15:17:15;;;;;;;34.38;21.45;;;;;;;;;;5058393;28;20036;-90
2021/11/29 15:19:43;;;;;;;30.85;19.52;;;;;;;;;;5059823;28;20020;-91
2021/11/29 15:22:11;;;;;;;30.40;19.30;;;;;;;;;;5040504;28;20020;-90
2021/11/29 15:24:40;;;;;;;27.30;17.25;;;;;;;;;;5057864;28;20507;-89
2021/11/29 15:27:15;;;;;;;19.58;14.50;;;;;;;;;;5040395;28;20120;-89
2021/11/29 15:29:41;;;;;;;22.27;15.68;;;;;;;;;;5040526;28;20037;-89
2021/11/29 15:32:14;;;;;;;26.08;16.90;;;;;;;;;;5058015;28;20032;-90
2021/11/29 15:34:40;;;;;;;21.83;15.23;;;;;;;;;;5057862;28;20029;-90
2021/11/29 15:37:10;;;;;;;22.90;15.35;;;;;;;;;;5040428;28;20052;-88
2021/11/29 15:39:36;;;;;;;25.30;16.75;;;;;;;;;;5058082;28;20021;-89